Time;durP1;ratioP1;P1;durP2;ratioP2;P2;SDS_P1;SDS_P2;PMS_P1;PMS_P2;Temp;Humidity;BMP_temperature;BMP_pressure;BME280_temperature;BME280_humidity;BME280_pressure;Samples;Min_cycle;Max_cycle;Signal;HPM_P1;HPM_P2
2022/11/10 00:00:17;;;;;;;7.75;5.20;;;;;;;9.66;100.00;100697.13;5019758;28;20267;-78
2022/11/10 00:02:44;;;;;;;9.10;5.70;;;;;;;9.71;100.00;100692.47;5007597;28;20679;-76
2022/11/10 00:05:13;;;;;;;9.38;5.10;;;;;;;9.75;100.00;100693.25;5014476;28;20195;-76
2022/11/10 00:07:40;;;;;;;9.70;5.68;;;;;;;9.73;100.00;100698.66;5008243;28;20226;-77
2022/11/10 00:10:08;;;;;;;16.33;5.25;;;;;;;9.72;100.00;100705.00;5021389;28;20234;-78
2022/11/10 00:12:35;;;;;;;9.35;4.40;;;;;;;9.66;100.00;100697.13;5018349;28;20250;-80
2022/11/10 00:18:02;;;;;;;6.50;4.55;;;;;;;9.48;100.00;100708.56;4930343;29;20258;-75
2022/11/10 00:20:30;;;;;;;10.77;4.93;;;;;;;9.61;100.00;100707.19;4930331;29;20202;-76
2022/11/10 00:22:56;;;;;;;8.93;5.15;;;;;;;9.65;100.00;100708.81;4934692;29;20233;-75
2022/11/10 00:25:23;;;;;;;9.50;4.80;;;;;;;9.70;100.00;100716.72;4937132;29;20208;-75
2022/11/10 00:27:50;;;;;;;11.88;4.88;;;;;;;9.71;100.00;100713.09;4927904;29;20206;-76
2022/11/10 00:30:17;;;;;;;11.38;4.53;;;;;;;9.62;100.00;100722.38;4928610;29;20293;-76
2022/11/10 00:32:43;;;;;;;12.75;5.15;;;;;;;9.68;100.00;100729.34;4935573;29;20221;-76
2022/11/10 00:35:10;;;;;;;8.82;4.50;;;;;;;9.71;100.00;100738.19;4928984;29;20212;-77
2022/11/10 00:37:38;;;;;;;11.40;5.18;;;;;;;9.72;100.00;100748.03;4932779;29;20214;-76
2022/11/10 00:40:05;;;;;;;8.95;5.32;;;;;;;9.66;100.00;100752.75;4934332;29;20288;-74
2022/11/10 00:42:31;;;;;;;7.70;4.15;;;;;;;9.58;100.00;100744.94;4935696;29;20601;-79
2022/11/10 00:44:58;;;;;;;6.28;4.75;;;;;;;9.58;100.00;100748.50;4927412;29;20211;-76
2022/11/10 00:47:25;;;;;;;10.57;4.70;;;;;;;9.74;100.00;100767.66;4922923;29;20285;-76
2022/11/10 00:49:51;;;;;;;15.18;5.60;;;;;;;9.67;100.00;100760.75;4998613;28;20202;-75
2022/11/10 00:52:18;;;;;;;9.82;4.70;;;;;;;9.56;100.00;100768.31;5010384;28;20685;-76
2022/11/10 00:54:45;;;;;;;9.10;5.32;;;;;;;9.45;100.00;100766.03;5014595;28;20677;-75
2022/11/10 00:57:12;;;;;;;8.07;4.70;;;;;;;9.42;100.00;100776.00;5007062;28;20270;-76
2022/11/10 00:59:38;;;;;;;9.70;6.20;;;;;;;9.33;100.00;100778.06;5017450;28;20202;-75
2022/11/10 01:02:05;;;;;;;8.85;4.78;;;;;;;9.16;100.00;100778.63;5005608;28;20215;-76
2022/11/10 01:04:32;;;;;;;8.20;4.40;;;;;;;9.12;100.00;100778.78;5003133;28;20203;-77
2022/11/10 01:06:58;;;;;;;6.88;4.88;;;;;;;9.06;100.00;100792.41;5012915;28;20381;-76
2022/11/10 01:09:25;;;;;;;11.52;5.40;;;;;;;9.07;100.00;100788.81;5014875;28;20293;-75
2022/11/10 01:11:53;;;;;;;7.50;4.80;;;;;;;9.06;100.00;100789.72;5018386;28;20226;-75
2022/11/10 01:14:20;;;;;;;13.75;4.95;;;;;;;9.06;100.00;100800.47;5010353;28;20210;-75
2022/11/10 01:16:46;;;;;;;6.47;4.25;;;;;;;9.07;100.00;100797.75;5004960;28;20205;-76
2022/11/10 01:19:13;;;;;;;9.75;4.80;;;;;;;9.10;100.00;100803.00;5010397;28;20271;-74
2022/11/10 01:21:39;;;;;;;9.20;4.30;;;;;;;9.07;100.00;100807.63;5013489;28;20198;-75
2022/11/10 01:24:06;;;;;;;7.13;4.88;;;;;;;9.14;100.00;100809.19;5017492;28;20222;-76
2022/11/10 01:26:33;;;;;;;12.20;5.22;;;;;;;9.10;100.00;100805.69;5010122;28;20218;-75
2022/11/10 01:29:01;;;;;;;13.43;6.57;;;;;;;9.09;100.00;100812.03;5008919;28;20221;-76
2022/11/10 01:31:27;;;;;;;8.93;5.20;;;;;;;9.09;100.00;100812.03;5014658;28;20228;-77
2022/11/10 01:33:54;;;;;;;8.00;4.45;;;;;;;9.16;100.00;100818.06;5003396;28;20599;-76
2022/11/10 01:36:20;;;;;;;12.68;4.70;;;;;;;9.14;100.00;100822.63;5012378;28;20206;-75
2022/11/10 01:38:47;;;;;;;14.23;5.60;;;;;;;9.05;100.00;100820.22;5012133;28;20198;-76
2022/11/10 01:41:14;;;;;;;8.85;4.82;;;;;;;8.99;100.00;100813.22;5011332;28;20199;-75
2022/11/10 01:43:41;;;;;;;7.80;4.90;;;;;;;8.96;100.00;100816.03;5008938;28;20319;-75
2022/11/10 01:46:11;;;;;;;12.18;5.47;;;;;;;8.90;100.00;100802.78;5003791;28;20205;-76
2022/11/10 01:48:42;;;;;;;12.23;5.78;;;;;;;8.87;100.00;100810.97;5004856;28;20194;-76
2022/11/10 01:51:16;;;;;;;10.70;5.13;;;;;;;8.94;100.00;100818.75;5015800;28;20644;-76
2022/11/10 01:53:46;;;;;;;7.93;5.30;;;;;;;8.98;100.00;100819.56;5015851;28;20225;-75
2022/11/10 01:56:15;;;;;;;12.95;6.10;;;;;;;8.91;100.00;100824.25;5015069;28;20202;-75
2022/11/10 01:58:48;;;;;;;8.88;5.05;;;;;;;8.94;100.00;100826.81;5013399;28;20218;-75
2022/11/10 02:01:16;;;;;;;9.23;5.13;;;;;;;8.91;100.00;100829.59;5013148;28;20195;-74
2022/11/10 02:03:47;;;;;;;9.30;4.60;;;;;;;8.92;100.00;100831.34;5009149;28;20306;-77
2022/11/10 02:06:15;;;;;;;8.73;5.05;;;;;;;8.91;100.00;100836.75;5008417;28;20199;-76
2022/11/10 02:08:42;;;;;;;14.57;7.15;;;;;;;8.93;100.00;100835.81;5008971;28;20205;-76
2022/11/10 02:11:09;;;;;;;10.43;4.50;;;;;;;8.97;100.00;100839.25;5005023;28;20302;-75
2022/11/10 02:13:36;;;;;;;9.55;4.57;;;;;;;8.96;100.00;100841.09;5006618;28;20233;-77
2022/11/10 02:16:02;;;;;;;11.98;6.10;;;;;;;8.88;100.00;100839.56;5012008;28;20211;-74
2022/11/10 02:18:30;;;;;;;14.50;5.70;;;;;;;8.94;100.00;100845.63;5015780;28;20207;-78
2022/11/10 02:20:58;;;;;;;11.80;5.97;;;;;;;8.88;100.00;100842.25;5017736;28;20211;-76
2022/11/10 02:23:45;;;;;;;11.20;5.22;;;;;;;8.86;100.00;100849.47;5015816;28;20215;-76
2022/11/10 02:26:14;;;;;;;9.75;5.63;;;;;;;8.78;100.00;100847.03;5010599;28;20203;-75
2022/11/10 02:28:41;;;;;;;9.55;5.05;;;;;;;8.70;100.00;100852.63;5011572;28;20216;-77
2022/11/10 02:31:08;;;;;;;8.15;5.32;;;;;;;8.60;100.00;100845.78;5014779;28;20736;-75
2022/11/10 02:33:35;;;;;;;12.60;6.20;;;;;;;8.51;100.00;100848.75;5008041;28;20244;-76
2022/11/10 02:36:03;;;;;;;13.43;5.10;;;;;;;8.49;100.00;100843.41;5012336;28;20198;-75
2022/11/10 02:38:30;;;;;;;9.60;5.45;;;;;;;8.46;100.00;100851.56;5018734;28;20590;-76
2022/11/10 02:40:56;;;;;;;7.32;5.40;;;;;;;8.43;100.00;100840.91;5012547;28;20213;-76
2022/11/10 02:43:23;;;;;;;15.63;6.53;;;;;;;8.43;100.00;100851.63;5018482;28;20229;-76
2022/11/10 02:45:49;;;;;;;9.13;5.43;;;;;;;8.41;100.00;100850.84;5018206;28;20210;-75
2022/11/10 02:48:16;;;;;;;10.18;5.55;;;;;;;8.37;100.00;100849.13;5014834;28;20207;-76
2022/11/10 02:50:43;;;;;;;12.00;6.25;;;;;;;8.43;100.00;100848.94;5021487;28;20197;-75
2022/11/10 02:53:11;;;;;;;12.30;5.85;;;;;;;8.41;100.00;100842.78;5017349;28;20230;-77
2022/11/10 02:55:38;;;;;;;16.35;6.20;;;;;;;8.35;100.00;100834.88;5013648;28;20635;-75
2022/11/10 02:58:05;;;;;;;9.60;5.60;;;;;;;8.37;100.00;100835.72;5011949;28;20206;-76
2022/11/10 03:00:32;;;;;;;10.45;5.40;;;;;;;8.26;100.00;100837.81;5016675;28;20292;-75
2022/11/10 03:03:00;;;;;;;8.38;5.07;;;;;;;8.22;100.00;100847.75;5017965;28;20282;-75
2022/11/10 03:05:28;;;;;;;6.90;4.80;;;;;;;8.19;100.00;100855.03;5013878;28;20210;-75
2022/11/10 03:07:55;;;;;;;6.82;5.18;;;;;;;8.16;100.00;100864.00;5014538;28;20258;-75
2022/11/10 03:10:24;;;;;;;7.90;5.88;;;;;;;8.08;100.00;100866.91;5016934;28;20581;-74
2022/11/10 03:12:54;;;;;;;10.00;5.95;;;;;;;8.05;100.00;100883.13;5010838;28;20223;-76
2022/11/10 03:15:20;;;;;;;8.77;5.45;;;;;;;7.98;100.00;100896.72;5015619;28;20210;-75
2022/11/10 03:17:47;;;;;;;9.38;6.03;;;;;;;7.97;100.00;100895.84;5000988;28;20205;-76
2022/11/10 03:20:14;;;;;;;12.55;5.53;;;;;;;8.30;100.00;100896.72;5005956;28;20207;-75
2022/11/10 03:22:40;;;;;;;12.95;6.80;;;;;;;8.24;100.00;100888.84;5011333;28;20218;-75
2022/11/10 03:25:08;;;;;;;14.25;6.00;;;;;;;8.08;100.00;100893.75;5012548;28;20269;-75
2022/11/10 03:27:36;;;;;;;10.40;6.20;;;;;;;8.17;100.00;100894.44;5013205;28;20201;-75
2022/11/10 03:30:03;;;;;;;11.25;6.03;;;;;;;8.28;100.00;100903.94;5019253;28;20209;-75
2022/11/10 03:32:30;;;;;;;8.93;5.78;;;;;;;8.44;100.00;100906.22;5017733;28;20237;-76
2022/11/10 03:34:57;;;;;;;11.93;7.38;;;;;;;8.37;100.00;100910.84;5017386;28;20210;-75
2022/11/10 03:37:23;;;;;;;7.90;5.75;;;;;;;8.23;100.00;100913.03;5011511;28;20203;-75
2022/11/10 03:39:50;;;;;;;10.63;6.38;;;;;;;8.13;100.00;100920.44;5008866;28;20205;-75
2022/11/10 03:42:17;;;;;;;8.35;6.20;;;;;;;8.07;100.00;100921.50;5005112;28;20219;-75
2022/11/10 03:44:45;;;;;;;12.00;6.20;;;;;;;8.08;100.00;100920.56;5015750;28;20234;-76
2022/11/10 03:47:11;;;;;;;11.27;6.85;;;;;;;8.02;100.00;100928.78;5016446;28;20205;-75
2022/11/10 03:49:38;;;;;;;14.77;6.10;;;;;;;7.96;100.00;100933.41;5005040;28;20226;-79
2022/11/10 03:52:04;;;;;;;16.00;7.03;;;;;;;7.96;100.00;100939.69;5014560;28;20236;-75
2022/11/10 03:54:31;;;;;;;11.55;5.65;;;;;;;7.89;100.00;100938.06;5017781;28;20274;-77
2022/11/10 03:56:57;;;;;;;10.05;6.32;;;;;;;7.85;100.00;100949.81;5010340;28;20266;-75
2022/11/10 03:59:24;;;;;;;7.88;6.35;;;;;;;7.93;100.00;100950.47;5005750;28;20655;-76
2022/11/10 04:01:52;;;;;;;12.10;7.78;;;;;;;7.95;100.00;100954.00;5017903;28;20205;-77
2022/11/10 04:09:43;;;;;;;18.45;8.02;;;;;;;8.11;100.00;100971.47;5014213;28;20278;-78
2022/11/10 04:17:39;;;;;;;13.90;7.72;;;;;;;7.73;100.00;100969.75;5011427;28;20230;-77
2022/11/10 04:20:07;;;;;;;18.38;8.27;;;;;;;7.73;100.00;100981.38;5024322;28;20281;-76
2022/11/10 04:25:17;;;;;;;12.10;7.32;;;;;;;7.63;100.00;100981.63;4965240;28;20208;-77
2022/11/10 04:27:43;;;;;;;13.85;7.07;;;;;;;7.56;100.00;100982.69;4970620;28;20211;-77
2022/11/10 04:30:10;;;;;;;11.88;7.25;;;;;;;7.65;100.00;100991.38;4958500;28;20554;-77
2022/11/10 04:32:38;;;;;;;10.40;6.15;;;;;;;7.57;100.00;100990.69;4948972;28;20522;-75
2022/11/10 04:35:05;;;;;;;12.52;7.43;;;;;;;7.48;100.00;100989.13;4956432;29;20284;-75
2022/11/10 04:37:32;;;;;;;13.15;7.70;;;;;;;7.57;100.00;100992.50;4955566;28;20208;-74
2022/11/10 04:39:58;;;;;;;11.75;6.82;;;;;;;7.45;100.00;100991.84;4954907;29;20271;-76
2022/11/10 04:42:25;;;;;;;16.90;8.50;;;;;;;7.43;100.00;100976.72;4953240;28;20339;-75
2022/11/10 04:44:51;;;;;;;20.48;7.97;;;;;;;7.39;100.00;100983.94;4939631;29;20281;-76
2022/11/10 04:47:18;;;;;;;14.18;9.38;;;;;;;7.38;100.00;100984.88;4964466;28;20212;-75
2022/11/10 04:49:46;;;;;;;23.73;11.05;;;;;;;7.36;100.00;100993.88;4947477;29;20205;-75
2022/11/10 04:52:12;;;;;;;19.58;8.40;;;;;;;7.43;100.00;100987.44;4949961;28;20231;-75
2022/11/10 04:54:39;;;;;;;12.18;7.95;;;;;;;7.47;100.00;100984.66;4956873;29;20208;-75
2022/11/10 04:57:05;;;;;;;14.55;7.95;;;;;;;7.45;100.00;100994.53;4954864;29;20295;-75
2022/11/10 04:59:32;;;;;;;16.88;8.18;;;;;;;7.43;100.00;100998.16;4959452;28;20223;-75
2022/11/10 05:01:58;;;;;;;22.30;8.70;;;;;;;7.46;100.00;101012.41;4972169;28;20206;-75
2022/11/10 05:04:25;;;;;;;10.93;7.82;;;;;;;7.41;100.00;101016.94;5013973;28;20301;-74
2022/11/10 05:06:53;;;;;;;18.00;8.20;;;;;;;7.47;100.00;101018.63;5011340;28;20201;-75
2022/11/10 05:09:20;;;;;;;21.55;9.73;;;;;;;7.42;100.00;101032.13;5007959;28;20214;-77
2022/11/10 05:11:46;;;;;;;16.17;7.97;;;;;;;7.61;100.00;101037.06;5016648;28;20198;-78
2022/11/10 05:14:13;;;;;;;15.80;10.05;;;;;;;7.54;100.00;101036.34;5013238;28;20244;-75
2022/11/10 05:16:39;;;;;;;14.93;10.35;;;;;;;7.55;100.00;101040.75;5012777;28;20201;-76
2022/11/10 05:19:06;;;;;;;16.60;10.95;;;;;;;7.54;100.00;101047.06;5008830;28;20653;-76
2022/11/10 05:21:32;;;;;;;17.27;9.00;;;;;;;7.43;100.00;101054.44;5005119;28;20223;-78
2022/11/10 05:24:01;;;;;;;15.98;8.80;;;;;;;7.44;100.00;101056.19;5014597;28;20664;-77
2022/11/10 05:26:28;;;;;;;14.93;7.82;;;;;;;7.41;100.00;101059.84;5015300;28;20801;-76
2022/11/10 05:28:55;;;;;;;15.35;7.97;;;;;;;7.33;100.00;101059.13;5015314;28;20210;-75
2022/11/10 05:31:21;;;;;;;13.20;8.00;;;;;;;7.29;100.00;101066.34;5011076;28;20199;-75
2022/11/10 05:33:48;;;;;;;13.93;8.45;;;;;;;7.40;100.00;101073.28;5007272;28;20229;-76
2022/11/10 05:36:14;;;;;;;18.25;10.10;;;;;;;7.30;100.00;101073.50;5003798;28;20210;-76
2022/11/10 05:38:41;;;;;;;21.98;10.55;;;;;;;7.39;100.00;101080.41;5013769;28;20289;-77
2022/11/10 05:41:08;;;;;;;18.98;9.05;;;;;;;7.46;100.00;101086.53;5012898;28;20206;-78
2022/11/10 05:43:35;;;;;;;15.70;9.45;;;;;;;7.55;100.00;101086.34;5000460;28;20731;-78
2022/11/10 05:46:01;;;;;;;18.10;10.02;;;;;;;7.52;100.00;101097.13;5007986;28;20213;-77
2022/11/10 05:48:28;;;;;;;21.60;10.38;;;;;;;7.64;100.00;101102.25;5007060;28;20672;-75
2022/11/10 05:50:55;;;;;;;20.58;10.55;;;;;;;7.66;100.00;101105.75;5015816;28;20216;-77
2022/11/10 05:53:22;;;;;;;17.48;9.88;;;;;;;7.64;100.00;101102.25;5008256;28;20229;-76
2022/11/10 05:55:49;;;;;;;20.90;10.38;;;;;;;7.61;100.00;101104.97;5007581;28;20198;-77
2022/11/10 05:58:16;;;;;;;17.60;10.40;;;;;;;7.68;100.00;101106.59;5007895;28;20293;-78
2022/11/10 06:00:43;;;;;;;26.33;11.65;;;;;;;7.67;100.00;101107.53;5013680;28;20197;-79
2022/11/10 06:03:14;;;;;;;19.70;11.57;;;;;;;7.57;100.00;101115.78;5012367;28;20255;-76
2022/11/10 06:05:40;;;;;;;20.10;11.57;;;;;;;7.64;100.00;101129.06;5013105;28;20207;-75
2022/11/10 06:08:08;;;;;;;21.13;11.70;;;;;;;7.63;100.00;101123.72;5011201;28;20206;-76
2022/11/10 06:10:36;;;;;;;23.02;12.30;;;;;;;7.72;100.00;101135.13;5012260;28;20199;-76
2022/11/10 06:13:03;;;;;;;23.15;13.07;;;;;;;7.73;100.00;101136.91;5018135;28;20230;-76
2022/11/10 06:15:32;;;;;;;19.92;12.80;;;;;;;7.60;100.00;101137.16;5009583;28;20217;-76
2022/11/10 06:17:58;;;;;;;28.77;12.90;;;;;;;7.57;100.00;101138.13;5005085;28;20673;-76
2022/11/10 06:20:26;;;;;;;20.08;12.40;;;;;;;7.58;100.00;101153.31;5010820;28;20206;-78
2022/11/10 06:23:00;;;;;;;24.05;12.82;;;;;;;7.55;100.00;101168.56;5011615;28;20219;-77
2022/11/10 06:25:28;;;;;;;23.30;13.55;;;;;;;7.58;100.00;101180.13;5015894;28;20201;-74
2022/11/10 06:27:54;;;;;;;21.75;12.35;;;;;;;7.61;100.00;101187.22;5009467;28;20237;-77
2022/11/10 06:30:21;;;;;;;29.88;13.30;;;;;;;7.60;100.00;101189.00;5009370;28;20201;-76
2022/11/10 06:32:49;;;;;;;21.17;11.70;;;;;;;7.49;100.00;101191.91;5013073;28;20347;-76
2022/11/10 06:35:16;;;;;;;21.98;12.48;;;;;;;7.40;100.00;101196.56;5022820;28;20217;-76
2022/11/10 06:37:43;;;;;;;22.98;12.43;;;;;;;7.51;100.00;101203.47;5017614;28;20202;-76
2022/11/10 06:40:12;;;;;;;27.13;12.02;;;;;;;7.64;100.00;101204.13;5017453;28;20311;-75
2022/11/10 06:42:39;;;;;;;25.23;14.13;;;;;;;7.58;100.00;101212.28;5019225;28;20222;-76
2022/11/10 06:45:06;;;;;;;33.85;14.27;;;;;;;7.66;100.00;101225.53;5016169;28;20277;-75
2022/11/10 06:47:33;;;;;;;23.17;12.90;;;;;;;7.62;100.00;101221.13;5020639;28;20209;-79
2022/11/10 06:50:00;;;;;;;21.63;13.05;;;;;;;7.67;100.00;101222.81;5014302;28;20207;-77
2022/11/10 06:52:27;;;;;;;21.77;12.60;;;;;;;7.79;100.00;101226.16;5010241;28;20420;-76
2022/11/10 06:54:53;;;;;;;21.17;13.15;;;;;;;7.79;100.00;101228.84;5004172;28;20229;-76
2022/11/10 06:57:20;;;;;;;27.42;12.88;;;;;;;7.77;100.00;101236.03;5015266;28;20205;-75
2022/11/10 06:59:47;;;;;;;25.88;13.40;;;;;;;7.77;100.00;101234.22;5008768;28;20226;-78
2022/11/10 07:02:14;;;;;;;27.95;13.10;;;;;;;7.76;100.00;101234.28;5026702;28;20226;-76
2022/11/10 07:04:41;;;;;;;25.20;13.40;;;;;;;7.71;100.00;101240.63;5019691;28;20194;-78
2022/11/10 07:07:10;;;;;;;23.83;13.38;;;;;;;7.72;100.00;101236.13;5013732;28;20210;-77
2022/11/10 07:09:37;;;;;;;19.60;12.63;;;;;;;7.71;100.00;101247.75;5006175;28;20279;-76
2022/11/10 07:12:04;;;;;;;31.73;14.60;;;;;;;7.84;100.00;101257.31;5019264;28;20227;-76
2022/11/10 07:14:31;;;;;;;24.80;13.10;;;;;;;8.00;100.00;101268.63;5018892;28;20223;-79
2022/11/10 07:16:57;;;;;;;24.52;13.45;;;;;;;8.27;100.00;101272.50;5027004;28;20232;-78
2022/11/10 07:19:24;;;;;;;24.30;14.27;;;;;;;8.61;100.00;101281.66;5026902;28;20232;-77
2022/11/10 07:21:50;;;;;;;28.13;15.57;;;;;;;8.88;100.00;101280.97;5015439;28;20287;-78
2022/11/10 07:24:18;;;;;;;35.13;15.20;;;;;;;9.16;100.00;101300.00;5027853;28;20310;-77
2022/11/10 07:26:45;;;;;;;25.42;14.55;;;;;;;9.34;100.00;101298.66;5012542;28;20247;-78
2022/11/10 07:29:11;;;;;;;31.25;16.08;;;;;;;9.39;100.00;101309.28;5004352;28;20207;-76
2022/11/10 07:31:38;;;;;;;22.77;15.10;;;;;;;9.65;100.00;101319.34;4998534;28;20219;-76
2022/11/10 07:34:04;;;;;;;24.63;14.00;;;;;;;9.90;100.00;101319.53;5014373;28;20230;-76
2022/11/10 07:36:31;;;;;;;25.50;12.88;;;;;;;10.09;100.00;101322.63;5010004;28;20204;-77
2022/11/10 07:38:57;;;;;;;19.17;11.77;;;;;;;10.46;100.00;101326.94;5003628;28;20253;-77
2022/11/10 07:41:25;;;;;;;20.48;10.68;;;;;;;10.80;100.00;101331.28;5015895;28;20245;-76
2022/11/10 07:43:52;;;;;;;15.30;10.25;;;;;;;11.39;100.00;101341.94;5016153;28;20654;-78
2022/11/10 07:46:18;;;;;;;13.45;9.80;;;;;;;11.65;100.00;101346.44;5015075;28;20207;-75
2022/11/10 07:48:45;;;;;;;15.57;9.93;;;;;;;11.92;100.00;101350.94;5011690;28;20305;-78
2022/11/10 07:51:12;;;;;;;13.70;9.00;;;;;;;12.20;100.00;101353.53;5006487;28;20201;-76
2022/11/10 07:53:38;;;;;;;11.93;8.27;;;;;;;12.43;100.00;101350.84;5010031;28;20226;-77
2022/11/10 07:56:05;;;;;;;12.52;8.82;;;;;;;12.77;100.00;101351.38;5015702;28;20210;-76
2022/11/10 07:58:34;;;;;;;10.43;7.35;;;;;;;12.86;100.00;101353.69;5011233;28;20294;-78
2022/11/10 08:01:01;;;;;;;15.75;7.90;;;;;;;13.01;100.00;101363.91;5008038;28;20578;-76
2022/11/10 08:03:28;;;;;;;12.10;8.88;;;;;;;12.99;100.00;101362.22;5011776;28;20643;-77
2022/11/10 08:05:55;;;;;;;12.60;6.68;;;;;;;13.33;100.00;101345.50;5004528;28;20206;-76
2022/11/10 08:08:22;;;;;;;15.40;9.98;;;;;;;12.93;100.00;101352.50;4998050;28;20568;-76
2022/11/10 08:10:48;;;;;;;10.48;7.72;;;;;;;13.56;100.00;101355.34;5012881;28;20235;-76
2022/11/10 08:13:15;;;;;;;12.38;7.40;;;;;;;13.81;100.00;101359.72;5009219;28;20222;-76
2022/11/10 08:15:43;;;;;;;15.48;7.30;;;;;;;13.78;100.00;101363.44;5009729;28;20282;-75
2022/11/10 08:18:16;;;;;;;10.02;6.22;;;;;;;14.01;100.00;101369.69;5011623;28;20203;-76
2022/11/10 08:20:42;;;;;;;11.85;7.38;;;;;;;14.03;100.00;101359.66;5019984;28;20594;-77
2022/11/10 08:23:09;;;;;;;9.20;6.60;;;;;;;14.37;100.00;101359.00;5018042;28;20301;-78
2022/11/10 08:25:37;;;;;;;8.35;5.40;;;;;;;14.66;100.00;101365.81;5014551;28;20728;-77
2022/11/10 08:28:06;;;;;;;8.63;5.90;;;;;;;14.53;100.00;101361.88;5018106;28;20214;-76
2022/11/10 08:30:35;;;;;;;8.05;6.47;;;;;;;13.79;100.00;101362.47;5004683;28;20204;-75
2022/11/10 08:33:04;;;;;;;11.27;6.53;;;;;;;14.76;100.00;101361.69;5030308;28;20305;-76
2022/11/10 08:35:34;;;;;;;7.93;5.85;;;;;;;14.95;100.00;101358.13;5013857;28;20203;-77
2022/11/10 08:38:06;;;;;;;10.05;6.00;;;;;;;15.05;100.00;101363.97;5012845;28;20194;-76
2022/11/10 08:40:33;;;;;;;8.77;6.18;;;;;;;14.94;100.00;101370.78;5015760;28;20206;-77
2022/11/10 08:43:00;;;;;;;11.75;5.38;;;;;;;14.95;100.00;101368.97;5007625;28;20222;-76
2022/11/10 08:45:27;;;;;;;10.30;5.75;;;;;;;14.97;100.00;101381.53;5014393;28;20235;-77
2022/11/10 08:47:58;;;;;;;12.35;6.60;;;;;;;15.11;100.00;101375.41;5003430;28;20294;-75
2022/11/10 08:50:27;;;;;;;8.50;5.50;;;;;;;15.05;100.00;101381.13;5015431;28;20207;-77
2022/11/10 08:52:53;;;;;;;7.03;5.10;;;;;;;15.11;100.00;101377.25;5018697;28;20222;-77
2022/11/10 08:55:20;;;;;;;14.05;6.40;;;;;;;14.97;100.00;101373.38;5022419;28;20219;-76
2022/11/10 08:57:47;;;;;;;8.88;6.03;;;;;;;15.24;100.00;101386.56;5023587;28;20321;-76
2022/11/10 09:00:15;;;;;;;10.35;5.70;;;;;;;14.99;100.00;101382.31;5001650;28;20201;-77
2022/11/10 09:02:41;;;;;;;7.80;5.53;;;;;;;15.77;100.00;101388.44;5016683;28;20598;-76
2022/11/10 09:05:09;;;;;;;7.97;5.80;;;;;;;15.78;100.00;101397.44;5015175;28;20199;-76
2022/11/10 09:07:44;;;;;;;8.45;5.22;;;;;;;15.71;100.00;101390.56;5007392;28;20286;-76
2022/11/10 09:10:10;;;;;;;10.13;6.32;;;;;;;15.51;100.00;101397.88;5015901;28;20209;-77
2022/11/10 09:12:37;;;;;;;8.18;5.90;;;;;;;15.89;100.00;101397.78;5006499;28;20298;-76
2022/11/10 09:15:04;;;;;;;10.23;5.70;;;;;;;15.68;100.00;101409.72;5007131;28;20222;-77
2022/11/10 09:17:31;;;;;;;8.48;5.68;;;;;;;16.02;100.00;101400.75;4995560;28;20203;-75
2022/11/10 09:19:57;;;;;;;9.00;5.22;;;;;;;16.14;100.00;101408.22;4994941;28;20242;-78
2022/11/10 09:22:24;;;;;;;6.28;4.60;;;;;;;17.15;100.00;101415.47;5013739;28;20703;-74
2022/11/10 09:24:52;;;;;;;10.23;5.20;;;;;;;17.06;100.00;101419.56;5013654;28;20226;-77
2022/11/10 09:27:19;;;;;;;9.90;4.50;;;;;;;16.78;100.00;101427.47;5014141;28;20207;-76
2022/11/10 09:29:45;;;;;;;12.82;5.47;;;;;;;15.53;100.00;101433.06;5010492;28;20493;-76
2022/11/10 09:32:12;;;;;;;10.55;5.95;;;;;;;15.58;100.00;101431.91;5006444;28;20233;-75
2022/11/10 09:34:39;;;;;;;6.88;4.78;;;;;;;17.21;100.00;101444.19;5015491;28;20224;-75
2022/11/10 09:37:05;;;;;;;7.63;4.88;;;;;;;17.07;100.00;101450.38;5015729;28;20356;-75
2022/11/10 09:39:32;;;;;;;8.00;5.05;;;;;;;17.08;100.00;101447.59;4997036;28;20294;-78
2022/11/10 09:42:00;;;;;;;9.48;4.82;;;;;;;16.99;100.00;101447.22;5006059;28;20656;-76
2022/11/10 09:44:30;;;;;;;9.32;4.57;;;;;;;16.33;100.00;101450.78;5016713;28;20288;-75
2022/11/10 09:47:00;;;;;;;8.00;4.47;;;;;;;16.17;100.00;101448.84;5013473;28;20209;-74
2022/11/10 09:49:35;;;;;;;6.63;4.78;;;;;;;15.58;100.00;101456.34;5007703;28;20281;-75
2022/11/10 09:52:02;;;;;;;6.45;4.45;;;;;;;16.29;100.00;101469.06;5012368;28;20673;-75
2022/11/10 09:54:38;;;;;;;9.85;4.75;;;;;;;16.47;100.00;101470.81;5014654;28;20214;-75
2022/11/10 09:57:11;;;;;;;10.77;5.10;;;;;;;15.73;100.00;101464.72;5016322;28;20202;-77
2022/11/10 09:59:37;;;;;;;7.00;4.57;;;;;;;16.24;100.00;101472.03;5018243;28;20199;-75
2022/11/10 10:02:10;;;;;;;9.43;4.43;;;;;;;15.86;100.00;101474.00;5025252;28;20695;-76
2022/11/10 10:04:55;;;;;;;10.98;5.38;;;;;;;15.17;100.00;101480.03;5024183;28;20289;-77
2022/11/10 10:07:28;;;;;;;7.45;5.07;;;;;;;15.11;100.00;101486.66;5020479;28;20216;-76
2022/11/10 10:10:02;;;;;;;8.63;5.32;;;;;;;14.59;100.00;101484.50;5017074;28;20286;-76
2022/11/10 10:13:00;;;;;;;11.30;4.80;;;;;;;13.94;100.00;101488.22;4999324;28;20713;-75
2022/11/10 10:15:34;;;;;;;9.45;5.88;;;;;;;13.68;100.00;101492.00;5008707;28;20315;-75
2022/11/10 10:18:12;;;;;;;8.55;5.30;;;;;;;13.54;100.00;101500.69;5015261;28;20205;-75
2022/11/10 10:20:53;;;;;;;12.35;5.60;;;;;;;14.01;100.00;101494.28;5003846;28;20194;-77
2022/11/10 10:23:27;;;;;;;11.50;5.35;;;;;;;13.85;100.00;101494.03;5008489;28;20236;-75
2022/11/10 10:25:54;;;;;;;10.43;5.18;;;;;;;13.76;100.00;101495.28;5003692;28;20290;-76
2022/11/10 10:28:28;;;;;;;11.45;5.35;;;;;;;13.24;100.00;101497.34;5005991;28;20294;-76
2022/11/10 10:31:07;;;;;;;9.73;5.00;;;;;;;13.42;100.00;101502.06;5008170;28;20237;-78
2022/11/10 10:33:33;;;;;;;11.38;5.47;;;;;;;13.43;100.00;101505.66;5008596;28;20863;-75
2022/11/10 10:36:07;;;;;;;9.98;5.72;;;;;;;13.37;100.00;101512.19;4998959;28;20267;-77
2022/11/10 10:38:39;;;;;;;7.20;4.90;;;;;;;13.19;100.00;101518.31;5011970;28;20560;-76
2022/11/10 10:41:15;;;;;;;11.88;5.75;;;;;;;13.15;100.00;101502.16;5023626;28;20266;-76
2022/11/10 10:43:47;;;;;;;9.15;5.90;;;;;;;13.11;100.00;101500.56;5022588;28;20235;-77
2022/11/10 10:46:15;;;;;;;13.98;5.57;;;;;;;13.09;100.00;101505.13;5011325;28;20198;-75
2022/11/10 10:48:42;;;;;;;10.43;5.80;;;;;;;13.62;100.00;101495.00;5010671;28;20206;-79
2022/11/10 10:51:09;;;;;;;7.13;4.63;;;;;;;14.22;100.00;101492.47;5014377;28;20576;-76
2022/11/10 10:53:45;;;;;;;12.10;5.70;;;;;;;14.11;100.00;101491.13;5014154;28;20595;-76
2022/11/10 10:56:17;;;;;;;9.77;5.50;;;;;;;14.38;100.00;101491.75;5014868;28;20221;-76
2022/11/10 10:58:53;;;;;;;7.50;4.55;;;;;;;14.53;100.00;101487.47;5009674;28;20190;-76
2022/11/10 11:01:28;;;;;;;9.00;4.45;;;;;;;14.29;100.00;101488.53;5008770;28;20226;-76
2022/11/10 11:03:54;;;;;;;11.57;4.70;;;;;;;13.96;100.00;101498.06;5024033;28;20244;-77
2022/11/10 11:06:24;;;;;;;8.85;4.80;;;;;;;13.89;100.00;101495.69;5025493;28;20668;-77
2022/11/10 11:09:00;;;;;;;8.02;5.18;;;;;;;13.96;100.00;101492.63;5017890;28;20226;-77
2022/11/10 11:11:29;;;;;;;6.65;4.05;;;;;;;13.87;100.00;101495.72;5015299;28;20195;-76
2022/11/10 11:14:15;;;;;;;7.57;4.32;;;;;;;13.56;100.00;101496.97;5021032;28;20218;-76
2022/11/10 11:16:46;;;;;;;7.00;4.55;;;;;;;13.38;100.00;101495.00;5012980;28;20194;-76
2022/11/10 11:19:12;;;;;;;6.70;4.32;;;;;;;13.28;100.00;101499.03;5013342;28;20672;-76
2022/11/10 11:21:49;;;;;;;12.90;5.70;;;;;;;13.33;100.00;101497.91;5013192;28;20199;-76
2022/11/10 11:24:27;;;;;;;10.02;5.15;;;;;;;13.34;100.00;101506.88;5016390;28;20183;-77
2022/11/10 11:26:58;;;;;;;9.63;5.03;;;;;;;13.41;100.00;101504.81;5016591;28;20194;-76
2022/11/10 11:29:41;;;;;;;8.32;5.00;;;;;;;13.70;100.00;101509.06;5011333;28;20191;-77
2022/11/10 11:32:28;;;;;;;7.45;4.80;;;;;;;14.03;100.00;101508.63;5008509;28;20241;-76
2022/11/10 11:35:05;;;;;;;11.70;4.93;;;;;;;13.90;100.00;101511.84;4912540;29;20228;-76
2022/11/10 11:37:42;;;;;;;11.20;4.53;;;;;;;14.05;100.00;101506.75;4924761;29;20225;-77